Terminal Aerodrome Forecast
Issued by NWS

Home | Current Version | Previous Version | Text Only | Print | Product List | Glossary On
Versions: 1 2 3 4 5 6 7 8 9 10 11 12 13 14 15 16
816
FTUS43 KIND 170315 AAA
TAFLAF
TAF AMD
KLAF 170315Z 1703/1724 16007KT 3SM SHRA VCTS FEW007 BKN025CB
      WS020/20050KT
     FM170700 18008KT 4SM -SHRA OVC007 WS020/20050KT
     FM170900 21009KT 3SM BR VCSH OVC003
     FM171100 24009KT 4SM BR VCSH OVC008
     FM171800 25010KT P6SM OVC008
      AMD LTD TO CLD VIS AND WIND TIL 171400=

USA.gov is the U.S. government's official web portal to all federal, state and local government web resources and services.